This is the latest recevied weather packets stored in our database for station/object IT9CYW-12. If no packets are shown the sender has not sent any weather packets the latest 10 day(s).
| Time | Temp. | Humidity | Pressure | Rain* | Wind** | Luminosity | Snow |
|---|---|---|---|---|---|---|---|
| 1777764423 | 11.67° C | 66% | 985 hPa | - | - | 0 W/m² | - |
| 1777760822 | 11.67° C | 66% | 985.5 hPa | - | - | 0 W/m² | - |
| 1777759921 | 12.22° C | 65% | 985.5 hPa | - | - | 0 W/m² | - |
| 1777759021 | 12.22° C | 65% | 985.5 hPa | - | - | 0 W/m² | - |
| 1777757221 | 12.22° C | 65% | 985.5 hPa | - | - | 0 W/m² | - |
| 1777756321 | 12.22° C | 64% | 985.5 hPa | - | - | 0 W/m² | - |
| 1777752720 | 12.22° C | 64% | 985.4 hPa | - | - | 0 W/m² | - |
| 1777750020 | 12.22° C | 64% | 985 hPa | - | - | 0 W/m² | - |
| 1777745525 | 12.78° C | 62% | 984.2 hPa | - | - | 0 W/m² | - |
| 1777742824 | 13.33° C | 58% | 983.7 hPa | - | - | 17 W/m² | - |
| 1777741924 | 13.33° C | 57% | 983.7 hPa | - | - | 23 W/m² | - |
| 1777741023 | 13.89° C | 55% | 983.7 hPa | - | - | 27 W/m² | - |
| 1777739222 | 13.89° C | 56% | 983.5 hPa | - | - | 34 W/m² | - |
| 1777737422 | 14.44° C | 52% | 984 hPa | - | - | 40 W/m² | - |
| 1777735622 | 15° C | 49% | 984 hPa | - | - | 173 W/m² | - |
| 1777734722 | 15° C | 52% | 984.2 hPa | - | - | 219 W/m² | - |
| 1777733821 | 15.56° C | 51% | 983.9 hPa | - | - | 263 W/m² | - |
| 1777732921 | 15° C | 52% | 984 hPa | - | - | 292 W/m² | - |
| 1777732021 | 15.56° C | 51% | 984.2 hPa | - | - | 355 W/m² | - |
| 1777731120 | 15.56° C | 52% | 984 hPa | - | - | 435 W/m² | - |
| 1777730220 | 15.56° C | 54% | 984.2 hPa | - | - | 141 W/m² | - |
| 1777728418 | 15.56° C | 51% | 984.5 hPa | - | - | 587 W/m² | - |
| 1777727518 | 16.11° C | 50% | 984.5 hPa | - | - | 220 W/m² | - |
| 1777726618 | 15.56° C | 53% | 984.5 hPa | - | - | 701 W/m² | - |
| 1777725717 | 15° C | 57% | 984.7 hPa | - | - | 167 W/m² | - |
* Rain since midnight (hover to see other rain measurements)
** Current wind speed in m/s (hover to see current wind gust speed)